Buoy 44778

sailwx.info

Track history (hours):
 
Tides and Currents Weather Stations Pressure Air Temp Water Temp Dewpoint Dewpoint Depression Visibility Wind Speed Wind Dir Waves Ship Positions

Drifting buoy 44778

Last reported at 2018-Apr-26 05:00 UTC. Time now 2018-Apr-26 06:02 UTC.
Position N 28°44' W 025°08'.

Barometer 1024.3 mb
Water temperature 20.1 ° C

Date/timePositionNaut miles runAvg speedWind from/ knotsBaromVisibWave heightAir tempDewpointWater temp
2018-Apr-26 05:00N 28°44' W 025°08'1 1.1 1024.3 20.1
2018-Apr-26 04:00N 28°44' W 025°07'1 0.8 1024.4 20.1
2018-Apr-26 03:00N 28°44' W 025°07'1 1.1 1024.7 20.1
2018-Apr-26 02:00N 28°44' W 025°05'1 0.8 1025.7 20.1
2018-Apr-26 01:00N 28°45' W 025°05'1 0.5 1026.4 20.1
2018-Apr-26 00:00N 28°45' W 025°04'1 0.8 1026.5 20.1
2018-Apr-25 23:00N 28°46' W 025°04'1 0.5 1026.5 20.1
2018-Apr-25 22:00N 28°46' W 025°03'1 0.8 1026.3 20.2
2018-Apr-25 21:00N 28°46' W 025°02'1 0.5 1025.8 20.2
2018-Apr-25 20:00N 28°46' W 025°02'1 0.8 1025.3 20.2
2018-Apr-25 19:00N 28°46' W 025°01'1 0.5 1025.2 20.2
2018-Apr-25 18:00N 28°46' W 025°01'1 0.5 1025.0 20.2
2018-Apr-25 17:00N 28°46' W 025°00'1 0.5 1025.2 20.2
2018-Apr-25 16:00N 28°46' W 024°59'1 1.1 1025.5 20.2
2018-Apr-25 15:00N 28°46' W 024°58'1 0.5 1025.9 20.2
2018-Apr-25 14:00N 28°46' W 024°58'1 0.5 1026.6 20.2
2018-Apr-25 13:00N 28°46' W 024°57'1 1.1 1027.2 20.2
2018-Apr-25 12:00N 28°46' W 024°56'1 0.5 1027.5 20.2
2018-Apr-25 11:00N 28°46' W 024°55'1 0.5 1027.5 20.2
2018-Apr-25 10:00N 28°46' W 024°55'0 0.0 1027.6 20.2
2018-Apr-25 09:00N 28°46' W 024°55'1 0.5 1027.2 20.2
2018-Apr-25 08:00N 28°46' W 024°54'1 0.8 1026.8 20.2
2018-Apr-25 07:00N 28°46' W 024°53'1 0.5 1026.1 20.2
2018-Apr-25 06:00N 28°46' W 024°53'0 0.0 1025.9 20.2
2018-Apr-25 05:00N 28°46' W 024°53'1 0.5 1025.5 20.2
2018-Apr-25 04:00N 28°46' W 024°52'1 0.5 1025.8 20.2
2018-Apr-25 03:00N 28°46' W 024°52'1 0.8 1025.9 20.2
2018-Apr-25 02:00N 28°47' W 024°51'1 0.5 1026.2 20.2
2018-Apr-25 01:00N 28°47' W 024°50'1 0.8 1027.0 20.2
2018-Apr-25 00:00N 28°47' W 024°50'1 0.5 1027.3 20.3
2018-Apr-24 23:00N 28°47' W 024°49'1 0.6 1027.6 20.2
2018-Apr-24 22:00N 28°48' W 024°49'1 0.5 1027.4 20.3
2018-Apr-24 21:00N 28°48' W 024°49'1 0.6 1026.9 20.3
2018-Apr-24 20:00N 28°49' W 024°49'0 0.0 1026.7 20.3
2018-Apr-24 19:00N 28°49' W 024°49'1 0.5 1026.5 20.3
2018-Apr-24 18:00N 28°49' W 024°48'1 0.6 1026.7 20.3
2018-Apr-24 17:00N 28°49' W 024°48'1 0.5 1026.6 20.3
2018-Apr-24 16:00N 28°49' W 024°47'1 0.5 1026.7 20.3
2018-Apr-24 15:00N 28°49' W 024°47'1 0.5 1027.0 20.3
2018-Apr-24 14:00N 28°49' W 024°46'1 0.5 1027.2 20.3
2018-Apr-24 13:00N 28°49' W 024°46'1 0.8 1027.3 20.2
2018-Apr-24 12:00N 28°50' W 024°45'0 0.0 1027.3 20.2
2018-Apr-24 11:00N 28°50' W 024°45'1 0.5 1027.4 20.2
2018-Apr-24 10:00N 28°50' W 024°44'1 0.5 1027.2 20.1
2018-Apr-24 09:00N 28°50' W 024°44'1 0.5 1026.8 20.0
2018-Apr-24 08:00N 28°50' W 024°43'1 0.8 1026.6 19.9
2018-Apr-24 07:00N 28°50' W 024°43'1 0.5 1025.9 19.8
2018-Apr-24 06:00N 28°50' W 024°42'1 0.5 1025.7 19.7
2018-Apr-24 05:00N 28°50' W 024°41'1 0.8 1025.5 19.7
2018-Apr-24 04:00N 28°51' W 024°41'1 0.5 1025.2 19.7
2018-Apr-24 03:00N 28°51' W 024°40'1 0.8 1025.5 19.7
2018-Apr-24 02:00N 28°52' W 024°40'1 0.8 1025.9 19.7
2018-Apr-24 01:00N 28°52' W 024°39'1 0.8 1026.2 19.7
2018-Apr-24 00:00N 28°53' W 024°38'1 0.8 1026.4 19.7
2018-Apr-23 23:00N 28°53' W 024°38'1 0.6 1026.4 19.7
2018-Apr-23 22:00N 28°54' W 024°38'1 0.5 1026.2 19.7
2018-Apr-23 21:00N 28°54' W 024°37'0 0.0 1025.5 19.7
2018-Apr-23 20:00N 28°54' W 024°37'1 0.8 1024.9 19.8
2018-Apr-23 19:00N 28°55' W 024°37'0 0.0 1024.5 19.8
2018-Apr-23 18:00N 28°55' W 024°37'1 0.8 1024.4 19.8
2018-Apr-23 17:00N 28°55' W 024°36'0 0.0 1024.4 19.8
2018-Apr-23 16:00N 28°55' W 024°36'1 0.8 1024.8 19.8
2018-Apr-23 15:00N 28°56' W 024°35'0 0.0 1025.3 19.8
2018-Apr-23 14:00N 28°56' W 024°35'1 0.8 1025.5 19.7
2018-Apr-23 13:00N 28°56' W 024°35'0 0.0 1025.7 19.7
2018-Apr-23 12:00N 28°56' W 024°35'1 0.8 1025.9 19.7
2018-Apr-23 11:00N 28°57' W 024°34'0 0.0 1026.5 19.7
2018-Apr-23 10:00N 28°57' W 024°34'1 0.6 1025.7 19.7
2018-Apr-23 09:00N 28°58' W 024°34'1 0.5 1025.3 19.7
2018-Apr-23 08:00N 28°58' W 024°34'0 0.0 1024.9 19.7
2018-Apr-23 07:00N 28°58' W 024°34'1 0.5 1024.2 19.6
2018-Apr-23 06:00N 28°58' W 024°33'1 0.8 1023.9 19.6
2018-Apr-23 05:00N 28°58' W 024°32'1 0.5 1023.9 19.6
2018-Apr-23 04:00N 28°58' W 024°32'1 0.6 1024.4 19.6
2018-Apr-23 03:00N 28°59' W 024°32'1 0.8 1024.4 19.6
2018-Apr-23 02:00N 28°59' W 024°31'1 0.8 1024.7 19.6
2018-Apr-23 01:00N 29°00' W 024°31'1 0.6 1025.4 19.6
2018-Apr-23 00:00N 29°01' W 024°31'1 0.5 1025.6 19.6
2018-Apr-22 23:00N 29°01' W 024°30'1 0.6 1025.7 19.6
2018-Apr-22 22:00N 29°01' W 024°30'1 0.8 1025.1 19.6
2018-Apr-22 21:00N 29°02' W 024°29'1 0.8 1024.4 19.6
2018-Apr-22 20:00N 29°02' W 024°29'0 0.0 1023.9 19.7
2018-Apr-22 19:00N 29°02' W 024°29'1 0.8 1023.5 19.7
2018-Apr-22 18:00N 29°03' W 024°28'1 0.8 1023.2 19.7
2018-Apr-22 17:00N 29°04' W 024°28'0 0.0 1023.3 19.7
2018-Apr-22 16:00N 29°04' W 024°28'1 0.8 1023.4 19.7
2018-Apr-22 15:00N 29°04' W 024°27'1 0.6 1023.6 19.7
2018-Apr-22 14:00N 29°05' W 024°27'1 0.5 1023.8 19.6
2018-Apr-22 13:00N 29°05' W 024°26'1 0.8 1023.6 19.6
2018-Apr-22 12:00N 29°05' W 024°26'1 0.6 1023.9 19.5
2018-Apr-22 11:00N 29°06' W 024°26'0 0.0 1023.8 19.5
2018-Apr-22 10:00N 29°06' W 024°26'1 0.8 1023.5 19.5
2018-Apr-22 09:00N 29°07' W 024°25'1 0.8 1023.1 19.5
2018-Apr-22 08:00N 29°07' W 024°25'1 0.6 1022.7 19.5
2018-Apr-22 07:00N 29°08' W 024°25'1 0.5 1022.3 19.5
2018-Apr-22 06:00N 29°08' W 024°24'1 0.8 1021.9 19.5
2018-Apr-22 05:00N 29°08' W 024°23'1 1.2 1021.9 19.5
2018-Apr-22 04:00N 29°10' W 024°23'1 0.8 1022.1 19.5
2018-Apr-22 03:00N 29°10' W 024°23'0 0.0 1022.5 19.5
2018-Apr-22 02:00N 29°10' W 024°23'1 0.8 1023.1 19.5
2018-Apr-22 01:00N 29°11' W 024°22'1 0.8 1023.6 19.5
2018-Apr-22 00:00N 29°11' W 024°22'1 0.6 1023.8 19.5
2018-Apr-21 23:00N 29°12' W 024°22'1 0.8 1024.0 19.5
2018-Apr-21 22:00N 29°13' W 024°21'1 0.5 1023.5 19.5
2018-Apr-21 21:00N 29°13' W 024°20'1 0.8 1023.0 19.5
2018-Apr-21 20:00N 29°13' W 024°20'1 0.8 1022.5 19.6
2018-Apr-21 19:00N 29°14' W 024°19'1 0.8 1022.2 19.6
2018-Apr-21 18:00N 29°14' W 024°19'1 0.8 1022.0 19.6
2018-Apr-21 17:00N 29°15' W 024°18'1 0.8 1022.0 19.7
2018-Apr-21 16:00N 29°16' W 024°17'1 0.8 1022.2 19.7
2018-Apr-21 15:00N 29°16' W 024°17'1 0.8 1022.6 19.6
2018-Apr-21 14:00N 29°17' W 024°16'1 0.6 1022.8 19.6
2018-Apr-21 13:00N 29°17' W 024°16'1 0.8 1023.0 19.6
2018-Apr-21 12:00N 29°18' W 024°16'1 0.8 1023.3 19.5
2018-Apr-21 11:00N 29°19' W 024°15'1 0.6 1023.5 19.5
2018-Apr-21 10:00N 29°19' W 024°15'1 1.2 1023.3 19.5
2018-Apr-21 09:00N 29°20' W 024°14'1 0.8 1023.2 19.5
2018-Apr-21 08:00N 29°20' W 024°13'1 0.8 1023.1 19.5
2018-Apr-21 07:00N 29°21' W 024°13'1 1.2 1022.8 19.5
2018-Apr-21 06:00N 29°22' W 024°13'1 0.8 1022.6 19.5
2018-Apr-21 05:00N 29°23' W 024°12'1 0.8 1022.6 19.5
2018-Apr-21 04:00N 29°23' W 024°11'1 1.3 1023.0 19.5
2018-Apr-21 03:00N 29°25' W 024°11'1 0.6 1023.4 19.5
2018-Apr-21 02:00N 29°25' W 024°11'1 0.6 1024.1 19.6
2018-Apr-21 01:00N 29°26' W 024°11'1 0.8 1024.7 19.6
2018-Apr-21 00:00N 29°26' W 024°10'1 0.8 1025.1 19.6
2018-Apr-20 23:00N 29°27' W 024°10'1 0.6 1025.3 19.6
2018-Apr-20 22:00N 29°28' W 024°10'1 0.8 1025.2 19.6
2018-Apr-20 21:00N 29°28' W 024°09'1 0.8 1024.7 19.6
2018-Apr-20 20:00N 29°29' W 024°08'1 0.8 1024.4 19.7
2018-Apr-20 19:00N 29°29' W 024°08'1 1.3 1024.3 19.7
2018-Apr-20 18:00N 29°31' W 024°07'1 0.8 1024.4 19.8
2018-Apr-20 17:00N 29°31' W 024°07'1 0.6 1024.5 19.8
2018-Apr-20 16:00N 29°32' W 024°07'1 0.8 1024.8 19.8
2018-Apr-20 15:00N 29°32' W 024°06'1 1.3 1025.2 19.8
2018-Apr-20 14:00N 29°34' W 024°05'1 0.8 1025.6 19.8
2018-Apr-20 13:00N 29°34' W 024°05'1 0.6 1025.7 19.7
2018-Apr-20 12:00N 29°35' W 024°05'1 0.8 1026.2 19.7
2018-Apr-20 11:00N 29°35' W 024°04'1 0.8 1026.1 19.7
2018-Apr-20 10:00N 29°36' W 024°04'1 0.8 1025.6 19.7
2018-Apr-20 09:00N 29°37' W 024°03'1 0.6 1025.6 19.7
2018-Apr-20 08:00N 29°37' W 024°03'1 1.2 1025.4 19.7
2018-Apr-20 07:00N 29°38' W 024°02'1 0.8 1025.1 19.7
2018-Apr-20 06:00N 29°38' W 024°01'1 0.6 1024.8 19.7
2018-Apr-20 05:00N 29°39' W 024°01'1 0.8 1024.6 19.8
2018-Apr-20 04:00N 29°40' W 024°01'1 0.8 1024.8 19.8
2018-Apr-20 03:00N 29°40' W 024°00'1 0.8 1025.3 19.8
2018-Apr-20 02:00N 29°41' W 023°59'1 0.5 1025.8 19.8
2018-Apr-20 01:00N 29°41' W 023°59'1 0.8 1026.2 19.8
2018-Apr-20 00:00N 29°41' W 023°58'1 0.5 1026.4 19.8
2018-Apr-19 23:00N 29°41' W 023°58'1 0.8 1026.5 19.9
2018-Apr-19 22:00N 29°42' W 023°57'1 0.8 1026.4 19.9
2018-Apr-19 21:00N 29°43' W 023°56'1 0.5 1025.9 20.0
2018-Apr-19 20:00N 29°43' W 023°56'1 0.8 1025.3 20.0
2018-Apr-19 19:00N 29°43' W 023°55'1 1.2 1024.9 20.0
2018-Apr-19 18:00N 29°44' W 023°54'1 0.8 1024.8 20.1
2018-Apr-19 17:00N 29°44' W 023°53'1 0.5 1024.5 20.1
2018-Apr-19 16:00N 29°44' W 023°53'1 0.6 1024.5 20.1
2018-Apr-19 15:00N 29°45' W 023°53'1 0.8 1024.7 20.1
2018-Apr-19 14:00N 29°46' W 023°52'1 0.6 1024.7 20.0
2018-Apr-19 13:00N 29°46' W 023°52'1 0.8 1024.8 20.0
2018-Apr-19 12:00N 29°47' W 023°52'1 0.8 1024.8 20.0
2018-Apr-19 11:00N 29°47' W 023°51'1 0.6 1024.6 19.9
2018-Apr-19 10:00N 29°48' W 023°51'1 0.8 1024.1 19.9
2018-Apr-19 09:00N 29°49' W 023°50'1 0.6 1023.7 19.9
2018-Apr-19 08:00N 29°49' W 023°50'1 0.6 1023.5 20.0
2018-Apr-19 07:00N 29°50' W 023°50'1 0.6 1022.9 20.0
2018-Apr-19 06:00N 29°50' W 023°50'1 0.6 1022.4 20.1
2018-Apr-19 05:00N 29°51' W 023°50'1 0.6 1022.4 20.1
2018-Apr-19 04:00N 29°52' W 023°50'1 0.8 1022.5 20.1
2018-Apr-19 03:00N 29°52' W 023°51'0 0.0 1022.8 20.2
2018-Apr-19 02:00N 29°52' W 023°51'1 0.8 1023.3 20.3
2018-Apr-19 01:00N 29°53' W 023°52'1 0.6 1023.6 20.2
2018-Apr-19 00:00N 29°53' W 023°52'1 0.6 1024.0 20.4
2018-Apr-18 23:00N 29°54' W 023°52'1 0.5 1024.3 20.4
2018-Apr-18 22:00N 29°54' W 023°52'1 0.6 1024.0 20.5
2018-Apr-18 21:00N 29°55' W 023°52'0 0.0 1023.0 20.5
2018-Apr-18 20:00N 29°55' W 023°52'1 0.6 1022.6 20.6
2018-Apr-18 19:00N 29°55' W 023°52'0 0.0 1022.4 20.6
2018-Apr-18 18:00N 29°55' W 023°52'1 0.6 1022.1 20.7
2018-Apr-18 17:00N 29°56' W 023°52'0 0.0 1021.8 20.7
2018-Apr-18 16:00N 29°56' W 023°52'1 0.8 1022.1 20.8
2018-Apr-18 15:00N 29°56' W 023°52'1 0.5 1022.2 20.9
2018-Apr-18 14:00N 29°56' W 023°52'1 0.6 1022.2 20.7
2018-Apr-18 13:00N 29°57' W 023°52'1 0.5 1022.4 20.6
2018-Apr-18 12:00N 29°57' W 023°52'1 0.6 1022.4 20.4
2018-Apr-18 11:00N 29°58' W 023°52'1 0.6 1022.1 20.4
2018-Apr-18 10:00N 29°58' W 023°52'1 0.6 1021.9 20.3
2018-Apr-18 09:00N 29°59' W 023°52'1 0.8 1021.5 20.3
2018-Apr-18 08:00N 29°59' W 023°51'1 0.5 1021.2 20.3
2018-Apr-18 07:00N 29°59' W 023°52'1 0.6 1020.4 20.3
2018-Apr-18 06:00N 30°00' W 023°52'1 0.8 1020.0 20.3
2018-Apr-18 05:00N 30°01' W 023°52'0 0.0 1020.1 20.4
2018-Apr-18 04:00N 30°01' W 023°52'1 0.8 1020.0 20.4
2018-Apr-18 03:00N 30°01' W 023°53'1 0.5 1020.3 20.4
2018-Apr-18 02:00N 30°01' W 023°53'0 0.0 1020.6 20.4
2018-Apr-18 01:00N 30°01' W 023°53'1 0.5 1020.8 20.3
2018-Apr-18 00:00N 30°01' W 023°54'1 0.5 1021.0 20.4
2018-Apr-17 23:00N 30°01' W 023°55'0 0.0 1021.1 20.4
2018-Apr-17 22:00N 30°01' W 023°55'1 0.5 1021.0 20.5
2018-Apr-17 21:00N 30°01' W 023°55'1 0.6 1020.3 20.6
2018-Apr-17 20:00N 30°02' W 023°55'0 0.0 1019.9 20.6
2018-Apr-17 19:00N 30°02' W 023°55'1 0.6 1019.7 20.6
2018-Apr-17 18:00N 30°02' W 023°55'1 0.5 1019.8 20.6
2018-Apr-17 17:00N 30°02' W 023°56'0 0.0 1019.5 20.6
2018-Apr-17 16:00N 30°02' W 023°56'0 0.0 1019.7 20.5
2018-Apr-17 15:00N 30°02' W 023°56'1 0.8 1020.0 20.5
2018-Apr-17 14:00N 30°03' W 023°56'0 0.0 1020.4 20.4
2018-Apr-17 13:00N 30°03' W 023°56'1 0.5 1020.7 20.3
2018-Apr-17 12:00N 30°03' W 023°57'1 0.6 1021.0 20.1
2018-Apr-17 11:00N 30°04' W 023°57'1 0.5 1021.0 19.9
2018-Apr-17 10:00N 30°04' W 023°58'1 0.6 1020.8 19.9
2018-Apr-17 09:00N 30°04' W 023°58'1 0.6 1020.5 19.8
2018-Apr-17 08:00N 30°05' W 023°58'1 0.8 1020.2 19.9
2018-Apr-17 07:00N 30°05' W 023°58'1 0.8 1019.8 20.0
2018-Apr-17 06:00N 30°06' W 023°59'1 0.8 1019.5 20.1
2018-Apr-17 05:00N 30°07' W 023°59'1 0.5 1019.3 20.3
2018-Apr-17 04:00N 30°07' W 024°00'1 1.2 1019.5 20.2
2018-Apr-17 03:00N 30°07' W 024°01'1 0.5 1020.0 20.2
2018-Apr-17 02:00N 30°07' W 024°02'1 0.5 1020.0 20.4
2018-Apr-17 01:00N 30°07' W 024°02'1 0.5 1020.4 20.5
2018-Apr-17 00:00N 30°07' W 024°03'1 0.5 1020.5 20.6
2018-Apr-16 23:00N 30°07' W 024°04'1 0.6 1020.7 20.6
2018-Apr-16 22:00N 30°08' W 024°04'1 0.5 1020.4 20.7
2018-Apr-16 21:00N 30°08' W 024°04'1 0.8 1020.0 20.8
2018-Apr-16 20:00N 30°08' W 024°05'1 0.8 1019.7 20.9
2018-Apr-16 19:00N 30°09' W 024°05'1 0.8 1019.6 21.1
2018-Apr-16 18:00N 30°10' W 024°06'1 0.8 1019.7 21.2
2018-Apr-16 17:00N 30°10' W 024°07'1 1.2 1019.9 21.2
2018-Apr-16 16:00N 30°11' W 024°08'1 0.8 1020.2 21.0
2018-Apr-16 15:00N 30°11' W 024°08'1 1.0 1020.6 21.0
2018-Apr-16 14:00N 30°11' W 024°10'1 1.0 1021.0 21.1
2018-Apr-16 13:00N 30°11' W 024°11'1 0.5 1021.5 21.0
2018-Apr-16 12:00N 30°11' W 024°11'1 0.8 1021.7 21.0
2018-Apr-16 11:00N 30°11' W 024°12'1 0.5 1021.7 20.7
2018-Apr-16 10:00N 30°11' W 024°13'0 0.0 1021.5 20.6
2018-Apr-16 09:00N 30°11' W 024°13'1 0.6 1021.5 20.5
2018-Apr-16 08:00N 30°10' W 024°13'0 0.0 1021.4 20.4
2018-Apr-16 07:00N 30°10' W 024°13'1 0.6 1021.1 20.4
2018-Apr-16 06:00N 30°11' W 024°13'1 0.5 1020.9 20.4
2018-Apr-16 05:00N 30°11' W 024°12'   1021.3 20.4
Track history (hours):
 
Tides and Currents Weather Stations Pressure Air Temp Water Temp Dewpoint Dewpoint Depression Visibility Wind Speed Wind Dir Waves Ship Positions

Drifting buoy 44778

Last reported at 2018-Apr-26 05:00 UTC. Time now 2018-Apr-26 06:02 UTC.
Position N 28°44' W 025°08'.

Barometer 1024.3 mb
Water temperature 20.1 ° C

Date/timePositionNaut miles runAvg speedWind from/ knotsBaromVisibWave heightAir tempDewpointWater temp
2018-Apr-26 05:00N 28°44' W 025°08'1 1.1 1024.3 20.1
2018-Apr-26 04:00N 28°44' W 025°07'1 0.8 1024.4 20.1
2018-Apr-26 03:00N 28°44' W 025°07'1 1.1 1024.7 20.1
2018-Apr-26 02:00N 28°44' W 025°05'1 0.8 1025.7 20.1
2018-Apr-26 01:00N 28°45' W 025°05'1 0.5 1026.4 20.1
2018-Apr-26 00:00N 28°45' W 025°04'1 0.8 1026.5 20.1
2018-Apr-25 23:00N 28°46' W 025°04'1 0.5 1026.5 20.1
2018-Apr-25 22:00N 28°46' W 025°03'1 0.8 1026.3 20.2
2018-Apr-25 21:00N 28°46' W 025°02'1 0.5 1025.8 20.2
2018-Apr-25 20:00N 28°46' W 025°02'1 0.8 1025.3 20.2
2018-Apr-25 19:00N 28°46' W 025°01'1 0.5 1025.2 20.2
2018-Apr-25 18:00N 28°46' W 025°01'1 0.5 1025.0 20.2
2018-Apr-25 17:00N 28°46' W 025°00'1 0.5 1025.2 20.2
2018-Apr-25 16:00N 28°46' W 024°59'1 1.1 1025.5 20.2
2018-Apr-25 15:00N 28°46' W 024°58'1 0.5 1025.9 20.2
2018-Apr-25 14:00N 28°46' W 024°58'1 0.5 1026.6 20.2
2018-Apr-25 13:00N 28°46' W 024°57'1 1.1 1027.2 20.2
2018-Apr-25 12:00N 28°46' W 024°56'1 0.5 1027.5 20.2
2018-Apr-25 11:00N 28°46' W 024°55'1 0.5 1027.5 20.2
2018-Apr-25 10:00N 28°46' W 024°55'0 0.0 1027.6 20.2
2018-Apr-25 09:00N 28°46' W 024°55'1 0.5 1027.2 20.2
2018-Apr-25 08:00N 28°46' W 024°54'1 0.8 1026.8 20.2
2018-Apr-25 07:00N 28°46' W 024°53'1 0.5 1026.1 20.2
2018-Apr-25 06:00N 28°46' W 024°53'0 0.0 1025.9 20.2
2018-Apr-25 05:00N 28°46' W 024°53'1 0.5 1025.5 20.2
2018-Apr-25 04:00N 28°46' W 024°52'1 0.5 1025.8 20.2
2018-Apr-25 03:00N 28°46' W 024°52'1 0.8 1025.9 20.2
2018-Apr-25 02:00N 28°47' W 024°51'1 0.5 1026.2 20.2
2018-Apr-25 01:00N 28°47' W 024°50'1 0.8 1027.0 20.2
2018-Apr-25 00:00N 28°47' W 024°50'1 0.5 1027.3 20.3
2018-Apr-24 23:00N 28°47' W 024°49'1 0.6 1027.6 20.2
2018-Apr-24 22:00N 28°48' W 024°49'1 0.5 1027.4 20.3
2018-Apr-24 21:00N 28°48' W 024°49'1 0.6 1026.9 20.3
2018-Apr-24 20:00N 28°49' W 024°49'0 0.0 1026.7 20.3
2018-Apr-24 19:00N 28°49' W 024°49'1 0.5 1026.5 20.3
2018-Apr-24 18:00N 28°49' W 024°48'1 0.6 1026.7 20.3
2018-Apr-24 17:00N 28°49' W 024°48'1 0.5 1026.6 20.3
2018-Apr-24 16:00N 28°49' W 024°47'1 0.5 1026.7 20.3
2018-Apr-24 15:00N 28°49' W 024°47'1 0.5 1027.0 20.3
2018-Apr-24 14:00N 28°49' W 024°46'1 0.5 1027.2 20.3
2018-Apr-24 13:00N 28°49' W 024°46'1 0.8 1027.3 20.2
2018-Apr-24 12:00N 28°50' W 024°45'0 0.0 1027.3 20.2
2018-Apr-24 11:00N 28°50' W 024°45'1 0.5 1027.4 20.2
2018-Apr-24 10:00N 28°50' W 024°44'1 0.5 1027.2 20.1
2018-Apr-24 09:00N 28°50' W 024°44'1 0.5 1026.8 20.0
2018-Apr-24 08:00N 28°50' W 024°43'1 0.8 1026.6 19.9
2018-Apr-24 07:00N 28°50' W 024°43'1 0.5 1025.9 19.8
2018-Apr-24 06:00N 28°50' W 024°42'1 0.5 1025.7 19.7
2018-Apr-24 05:00N 28°50' W 024°41'1 0.8 1025.5 19.7
2018-Apr-24 04:00N 28°51' W 024°41'1 0.5 1025.2 19.7
2018-Apr-24 03:00N 28°51' W 024°40'1 0.8 1025.5 19.7
2018-Apr-24 02:00N 28°52' W 024°40'1 0.8 1025.9 19.7
2018-Apr-24 01:00N 28°52' W 024°39'1 0.8 1026.2 19.7
2018-Apr-24 00:00N 28°53' W 024°38'1 0.8 1026.4 19.7
2018-Apr-23 23:00N 28°53' W 024°38'1 0.6 1026.4 19.7
2018-Apr-23 22:00N 28°54' W 024°38'1 0.5 1026.2 19.7
2018-Apr-23 21:00N 28°54' W 024°37'0 0.0 1025.5 19.7
2018-Apr-23 20:00N 28°54' W 024°37'1 0.8 1024.9 19.8
2018-Apr-23 19:00N 28°55' W 024°37'0 0.0 1024.5 19.8
2018-Apr-23 18:00N 28°55' W 024°37'1 0.8 1024.4 19.8
2018-Apr-23 17:00N 28°55' W 024°36'0 0.0 1024.4 19.8
2018-Apr-23 16:00N 28°55' W 024°36'1 0.8 1024.8 19.8
2018-Apr-23 15:00N 28°56' W 024°35'0 0.0 1025.3 19.8
2018-Apr-23 14:00N 28°56' W 024°35'1 0.8 1025.5 19.7
2018-Apr-23 13:00N 28°56' W 024°35'0 0.0 1025.7 19.7
2018-Apr-23 12:00N 28°56' W 024°35'1 0.8 1025.9 19.7
2018-Apr-23 11:00N 28°57' W 024°34'0 0.0 1026.5 19.7
2018-Apr-23 10:00N 28°57' W 024°34'1 0.6 1025.7 19.7
2018-Apr-23 09:00N 28°58' W 024°34'1 0.5 1025.3 19.7
2018-Apr-23 08:00N 28°58' W 024°34'0 0.0 1024.9 19.7
2018-Apr-23 07:00N 28°58' W 024°34'1 0.5 1024.2 19.6
2018-Apr-23 06:00N 28°58' W 024°33'1 0.8 1023.9 19.6
2018-Apr-23 05:00N 28°58' W 024°32'1 0.5 1023.9 19.6
2018-Apr-23 04:00N 28°58' W 024°32'1 0.6 1024.4 19.6
2018-Apr-23 03:00N 28°59' W 024°32'1 0.8 1024.4 19.6
2018-Apr-23 02:00N 28°59' W 024°31'1 0.8 1024.7 19.6
2018-Apr-23 01:00N 29°00' W 024°31'1 0.6 1025.4 19.6
2018-Apr-23 00:00N 29°01' W 024°31'1 0.5 1025.6 19.6
2018-Apr-22 23:00N 29°01' W 024°30'1 0.6 1025.7 19.6
2018-Apr-22 22:00N 29°01' W 024°30'1 0.8 1025.1 19.6
2018-Apr-22 21:00N 29°02' W 024°29'1 0.8 1024.4 19.6
2018-Apr-22 20:00N 29°02' W 024°29'0 0.0 1023.9 19.7
2018-Apr-22 19:00N 29°02' W 024°29'1 0.8 1023.5 19.7
2018-Apr-22 18:00N 29°03' W 024°28'1 0.8 1023.2 19.7
2018-Apr-22 17:00N 29°04' W 024°28'0 0.0 1023.3 19.7
2018-Apr-22 16:00N 29°04' W 024°28'1 0.8 1023.4 19.7
2018-Apr-22 15:00N 29°04' W 024°27'1 0.6 1023.6 19.7
2018-Apr-22 14:00N 29°05' W 024°27'1 0.5 1023.8 19.6
2018-Apr-22 13:00N 29°05' W 024°26'1 0.8 1023.6 19.6
2018-Apr-22 12:00N 29°05' W 024°26'1 0.6 1023.9 19.5
2018-Apr-22 11:00N 29°06' W 024°26'0 0.0 1023.8 19.5
2018-Apr-22 10:00N 29°06' W 024°26'1 0.8 1023.5 19.5
2018-Apr-22 09:00N 29°07' W 024°25'1 0.8 1023.1 19.5
2018-Apr-22 08:00N 29°07' W 024°25'1 0.6 1022.7 19.5
2018-Apr-22 07:00N 29°08' W 024°25'1 0.5 1022.3 19.5
2018-Apr-22 06:00N 29°08' W 024°24'1 0.8 1021.9 19.5
2018-Apr-22 05:00N 29°08' W 024°23'1 1.2 1021.9 19.5
2018-Apr-22 04:00N 29°10' W 024°23'1 0.8 1022.1 19.5
2018-Apr-22 03:00N 29°10' W 024°23'0 0.0 1022.5 19.5
2018-Apr-22 02:00N 29°10' W 024°23'1 0.8 1023.1 19.5
2018-Apr-22 01:00N 29°11' W 024°22'1 0.8 1023.6 19.5
2018-Apr-22 00:00N 29°11' W 024°22'1 0.6 1023.8 19.5
2018-Apr-21 23:00N 29°12' W 024°22'1 0.8 1024.0 19.5
2018-Apr-21 22:00N 29°13' W 024°21'1 0.5 1023.5 19.5
2018-Apr-21 21:00N 29°13' W 024°20'1 0.8 1023.0 19.5
2018-Apr-21 20:00N 29°13' W 024°20'1 0.8 1022.5 19.6
2018-Apr-21 19:00N 29°14' W 024°19'1 0.8 1022.2 19.6
2018-Apr-21 18:00N 29°14' W 024°19'1 0.8 1022.0 19.6
2018-Apr-21 17:00N 29°15' W 024°18'1 0.8 1022.0 19.7
2018-Apr-21 16:00N 29°16' W 024°17'1 0.8 1022.2 19.7
2018-Apr-21 15:00N 29°16' W 024°17'1 0.8 1022.6 19.6
2018-Apr-21 14:00N 29°17' W 024°16'1 0.6 1022.8 19.6
2018-Apr-21 13:00N 29°17' W 024°16'1 0.8 1023.0 19.6
2018-Apr-21 12:00N 29°18' W 024°16'1 0.8 1023.3 19.5
2018-Apr-21 11:00N 29°19' W 024°15'1 0.6 1023.5 19.5
2018-Apr-21 10:00N 29°19' W 024°15'1 1.2 1023.3 19.5
2018-Apr-21 09:00N 29°20' W 024°14'1 0.8 1023.2 19.5
2018-Apr-21 08:00N 29°20' W 024°13'1 0.8 1023.1 19.5
2018-Apr-21 07:00N 29°21' W 024°13'1 1.2 1022.8 19.5
2018-Apr-21 06:00N 29°22' W 024°13'1 0.8 1022.6 19.5
2018-Apr-21 05:00N 29°23' W 024°12'1 0.8 1022.6 19.5
2018-Apr-21 04:00N 29°23' W 024°11'1 1.3 1023.0 19.5
2018-Apr-21 03:00N 29°25' W 024°11'1 0.6 1023.4 19.5
2018-Apr-21 02:00N 29°25' W 024°11'1 0.6 1024.1 19.6
2018-Apr-21 01:00N 29°26' W 024°11'1 0.8 1024.7 19.6
2018-Apr-21 00:00N 29°26' W 024°10'1 0.8 1025.1 19.6
2018-Apr-20 23:00N 29°27' W 024°10'1 0.6 1025.3 19.6
2018-Apr-20 22:00N 29°28' W 024°10'1 0.8 1025.2 19.6
2018-Apr-20 21:00N 29°28' W 024°09'1 0.8 1024.7 19.6
2018-Apr-20 20:00N 29°29' W 024°08'1 0.8 1024.4 19.7
2018-Apr-20 19:00N 29°29' W 024°08'1 1.3 1024.3 19.7
2018-Apr-20 18:00N 29°31' W 024°07'1 0.8 1024.4 19.8
2018-Apr-20 17:00N 29°31' W 024°07'1 0.6 1024.5 19.8
2018-Apr-20 16:00N 29°32' W 024°07'1 0.8 1024.8 19.8
2018-Apr-20 15:00N 29°32' W 024°06'1 1.3 1025.2 19.8
2018-Apr-20 14:00N 29°34' W 024°05'1 0.8 1025.6 19.8
2018-Apr-20 13:00N 29°34' W 024°05'1 0.6 1025.7 19.7
2018-Apr-20 12:00N 29°35' W 024°05'1 0.8 1026.2 19.7
2018-Apr-20 11:00N 29°35' W 024°04'1 0.8 1026.1 19.7
2018-Apr-20 10:00N 29°36' W 024°04'1 0.8 1025.6 19.7
2018-Apr-20 09:00N 29°37' W 024°03'1 0.6 1025.6 19.7
2018-Apr-20 08:00N 29°37' W 024°03'1 1.2 1025.4 19.7
2018-Apr-20 07:00N 29°38' W 024°02'1 0.8 1025.1 19.7
2018-Apr-20 06:00N 29°38' W 024°01'1 0.6 1024.8 19.7
2018-Apr-20 05:00N 29°39' W 024°01'1 0.8 1024.6 19.8
2018-Apr-20 04:00N 29°40' W 024°01'1 0.8 1024.8 19.8
2018-Apr-20 03:00N 29°40' W 024°00'1 0.8 1025.3 19.8
2018-Apr-20 02:00N 29°41' W 023°59'1 0.5 1025.8 19.8
2018-Apr-20 01:00N 29°41' W 023°59'1 0.8 1026.2 19.8
2018-Apr-20 00:00N 29°41' W 023°58'1 0.5 1026.4 19.8
2018-Apr-19 23:00N 29°41' W 023°58'1 0.8 1026.5 19.9
2018-Apr-19 22:00N 29°42' W 023°57'1 0.8 1026.4 19.9
2018-Apr-19 21:00N 29°43' W 023°56'1 0.5 1025.9 20.0
2018-Apr-19 20:00N 29°43' W 023°56'1 0.8 1025.3 20.0
2018-Apr-19 19:00N 29°43' W 023°55'1 1.2 1024.9 20.0
2018-Apr-19 18:00N 29°44' W 023°54'1 0.8 1024.8 20.1
2018-Apr-19 17:00N 29°44' W 023°53'1 0.5 1024.5 20.1
2018-Apr-19 16:00N 29°44' W 023°53'1 0.6 1024.5 20.1
2018-Apr-19 15:00N 29°45' W 023°53'1 0.8 1024.7 20.1
2018-Apr-19 14:00N 29°46' W 023°52'1 0.6 1024.7 20.0
2018-Apr-19 13:00N 29°46' W 023°52'1 0.8 1024.8 20.0
2018-Apr-19 12:00N 29°47' W 023°52'1 0.8 1024.8 20.0
2018-Apr-19 11:00N 29°47' W 023°51'1 0.6 1024.6 19.9
2018-Apr-19 10:00N 29°48' W 023°51'1 0.8 1024.1 19.9
2018-Apr-19 09:00N 29°49' W 023°50'1 0.6 1023.7 19.9
2018-Apr-19 08:00N 29°49' W 023°50'1 0.6 1023.5 20.0
2018-Apr-19 07:00N 29°50' W 023°50'1 0.6 1022.9 20.0
2018-Apr-19 06:00N 29°50' W 023°50'1 0.6 1022.4 20.1
2018-Apr-19 05:00N 29°51' W 023°50'1 0.6 1022.4 20.1
2018-Apr-19 04:00N 29°52' W 023°50'1 0.8 1022.5 20.1
2018-Apr-19 03:00N 29°52' W 023°51'0 0.0 1022.8 20.2
2018-Apr-19 02:00N 29°52' W 023°51'1 0.8 1023.3 20.3
2018-Apr-19 01:00N 29°53' W 023°52'1 0.6 1023.6 20.2
2018-Apr-19 00:00N 29°53' W 023°52'1 0.6 1024.0 20.4
2018-Apr-18 23:00N 29°54' W 023°52'1 0.5 1024.3 20.4
2018-Apr-18 22:00N 29°54' W 023°52'1 0.6 1024.0 20.5
2018-Apr-18 21:00N 29°55' W 023°52'0 0.0 1023.0 20.5
2018-Apr-18 20:00N 29°55' W 023°52'1 0.6 1022.6 20.6
2018-Apr-18 19:00N 29°55' W 023°52'0 0.0 1022.4 20.6
2018-Apr-18 18:00N 29°55' W 023°52'1 0.6 1022.1 20.7
2018-Apr-18 17:00N 29°56' W 023°52'0 0.0 1021.8 20.7
2018-Apr-18 16:00N 29°56' W 023°52'1 0.8 1022.1 20.8
2018-Apr-18 15:00N 29°56' W 023°52'1 0.5 1022.2 20.9
2018-Apr-18 14:00N 29°56' W 023°52'1 0.6 1022.2 20.7
2018-Apr-18 13:00N 29°57' W 023°52'1 0.5 1022.4 20.6
2018-Apr-18 12:00N 29°57' W 023°52'1 0.6 1022.4 20.4
2018-Apr-18 11:00N 29°58' W 023°52'1 0.6 1022.1 20.4
2018-Apr-18 10:00N 29°58' W 023°52'1 0.6 1021.9 20.3
2018-Apr-18 09:00N 29°59' W 023°52'1 0.8 1021.5 20.3
2018-Apr-18 08:00N 29°59' W 023°51'1 0.5 1021.2 20.3
2018-Apr-18 07:00N 29°59' W 023°52'1 0.6 1020.4 20.3
2018-Apr-18 06:00N 30°00' W 023°52'1 0.8 1020.0 20.3
2018-Apr-18 05:00N 30°01' W 023°52'0 0.0 1020.1 20.4
2018-Apr-18 04:00N 30°01' W 023°52'1 0.8 1020.0 20.4
2018-Apr-18 03:00N 30°01' W 023°53'1 0.5 1020.3 20.4
2018-Apr-18 02:00N 30°01' W 023°53'0 0.0 1020.6 20.4
2018-Apr-18 01:00N 30°01' W 023°53'1 0.5 1020.8 20.3
2018-Apr-18 00:00N 30°01' W 023°54'1 0.5 1021.0 20.4
2018-Apr-17 23:00N 30°01' W 023°55'0 0.0 1021.1 20.4
2018-Apr-17 22:00N 30°01' W 023°55'1 0.5 1021.0 20.5
2018-Apr-17 21:00N 30°01' W 023°55'1 0.6 1020.3 20.6
2018-Apr-17 20:00N 30°02' W 023°55'0 0.0 1019.9 20.6
2018-Apr-17 19:00N 30°02' W 023°55'1 0.6 1019.7 20.6
2018-Apr-17 18:00N 30°02' W 023°55'1 0.5 1019.8 20.6
2018-Apr-17 17:00N 30°02' W 023°56'0 0.0 1019.5 20.6
2018-Apr-17 16:00N 30°02' W 023°56'0 0.0 1019.7 20.5
2018-Apr-17 15:00N 30°02' W 023°56'1 0.8 1020.0 20.5
2018-Apr-17 14:00N 30°03' W 023°56'0 0.0 1020.4 20.4
2018-Apr-17 13:00N 30°03' W 023°56'1 0.5 1020.7 20.3
2018-Apr-17 12:00N 30°03' W 023°57'1 0.6 1021.0 20.1
2018-Apr-17 11:00N 30°04' W 023°57'1 0.5 1021.0 19.9
2018-Apr-17 10:00N 30°04' W 023°58'1 0.6 1020.8 19.9
2018-Apr-17 09:00N 30°04' W 023°58'1 0.6 1020.5 19.8
2018-Apr-17 08:00N 30°05' W 023°58'1 0.8 1020.2 19.9
2018-Apr-17 07:00N 30°05' W 023°58'1 0.8 1019.8 20.0
2018-Apr-17 06:00N 30°06' W 023°59'1 0.8 1019.5 20.1
2018-Apr-17 05:00N 30°07' W 023°59'1 0.5 1019.3 20.3
2018-Apr-17 04:00N 30°07' W 024°00'1 1.2 1019.5 20.2
2018-Apr-17 03:00N 30°07' W 024°01'1 0.5 1020.0 20.2
2018-Apr-17 02:00N 30°07' W 024°02'1 0.5 1020.0 20.4
2018-Apr-17 01:00N 30°07' W 024°02'1 0.5 1020.4 20.5
2018-Apr-17 00:00N 30°07' W 024°03'1 0.5 1020.5 20.6
2018-Apr-16 23:00N 30°07' W 024°04'1 0.6 1020.7 20.6
2018-Apr-16 22:00N 30°08' W 024°04'1 0.5 1020.4 20.7
2018-Apr-16 21:00N 30°08' W 024°04'1 0.8 1020.0 20.8
2018-Apr-16 20:00N 30°08' W 024°05'1 0.8 1019.7 20.9
2018-Apr-16 19:00N 30°09' W 024°05'1 0.8 1019.6 21.1
2018-Apr-16 18:00N 30°10' W 024°06'1 0.8 1019.7 21.2
2018-Apr-16 17:00N 30°10' W 024°07'1 1.2 1019.9 21.2
2018-Apr-16 16:00N 30°11' W 024°08'1 0.8 1020.2 21.0
2018-Apr-16 15:00N 30°11' W 024°08'1 1.0 1020.6 21.0
2018-Apr-16 14:00N 30°11' W 024°10'1 1.0 1021.0 21.1
2018-Apr-16 13:00N 30°11' W 024°11'1 0.5 1021.5 21.0
2018-Apr-16 12:00N 30°11' W 024°11'1 0.8 1021.7 21.0
2018-Apr-16 11:00N 30°11' W 024°12'1 0.5 1021.7 20.7
2018-Apr-16 10:00N 30°11' W 024°13'0 0.0 1021.5 20.6
2018-Apr-16 09:00N 30°11' W 024°13'1 0.6 1021.5 20.5
2018-Apr-16 08:00N 30°10' W 024°13'0 0.0 1021.4 20.4
2018-Apr-16 07:00N 30°10' W 024°13'1 0.6 1021.1 20.4
2018-Apr-16 06:00N 30°11' W 024°13'1 0.5 1020.9 20.4
2018-Apr-16 05:00N 30°11' W 024°12'   1021.3 20.4

Dump ship's entire track history